sensor_id;sensor_type;location;lat;lon;timestamp;P1;durP1;ratioP1;P2;durP2;ratioP2
18776;SDS011;9517;51.174;4.160;2022-11-09T00:00:50;13.97;;;2.60;;
18776;SDS011;9517;51.174;4.160;2022-11-09T00:03:17;16.23;;;3.50;;
18776;SDS011;9517;51.174;4.160;2022-11-09T00:05:52;15.33;;;2.87;;
18776;SDS011;9517;51.174;4.160;2022-11-09T00:08:20;11.43;;;2.70;;
18776;SDS011;9517;51.174;4.160;2022-11-09T00:10:48;12.33;;;3.07;;
18776;SDS011;9517;51.174;4.160;2022-11-09T00:13:16;14.53;;;3.63;;
18776;SDS011;9517;51.174;4.160;2022-11-09T00:15:43;14.53;;;3.10;;
18776;SDS011;9517;51.174;4.160;2022-11-09T00:18:09;13.00;;;3.40;;
18776;SDS011;9517;51.174;4.160;2022-11-09T00:20:36;11.83;;;2.80;;
18776;SDS011;9517;51.174;4.160;2022-11-09T00:23:03;13.40;;;2.80;;
18776;SDS011;9517;51.174;4.160;2022-11-09T00:25:31;14.07;;;2.93;;
18776;SDS011;9517;51.174;4.160;2022-11-09T00:27:59;10.80;;;2.23;;
18776;SDS011;9517;51.174;4.160;2022-11-09T00:30:26;9.93;;;2.33;;
18776;SDS011;9517;51.174;4.160;2022-11-09T00:32:54;12.93;;;2.57;;
18776;SDS011;9517;51.174;4.160;2022-11-09T00:35:21;17.03;;;2.97;;
18776;SDS011;9517;51.174;4.160;2022-11-09T00:37:48;11.17;;;2.67;;
18776;SDS011;9517;51.174;4.160;2022-11-09T00:40:15;12.57;;;2.47;;
18776;SDS011;9517;51.174;4.160;2022-11-09T00:42:42;14.63;;;2.90;;
18776;SDS011;9517;51.174;4.160;2022-11-09T00:45:10;12.87;;;2.53;;
18776;SDS011;9517;51.174;4.160;2022-11-09T00:47:37;13.20;;;2.20;;
18776;SDS011;9517;51.174;4.160;2022-11-09T00:50:05;15.70;;;2.43;;
18776;SDS011;9517;51.174;4.160;2022-11-09T00:52:32;10.80;;;2.23;;
18776;SDS011;9517;51.174;4.160;2022-11-09T00:54:59;10.73;;;2.20;;
18776;SDS011;9517;51.174;4.160;2022-11-09T00:57:26;12.20;;;2.27;;
18776;SDS011;9517;51.174;4.160;2022-11-09T00:59:53;17.27;;;2.43;;
18776;SDS011;9517;51.174;4.160;2022-11-09T01:02:22;14.77;;;3.00;;
18776;SDS011;9517;51.174;4.160;2022-11-09T01:04:49;17.60;;;2.10;;
18776;SDS011;9517;51.174;4.160;2022-11-09T01:07:16;13.73;;;2.17;;
18776;SDS011;9517;51.174;4.160;2022-11-09T01:09:43;10.80;;;1.87;;
18776;SDS011;9517;51.174;4.160;2022-11-09T01:12:10;15.80;;;2.57;;
18776;SDS011;9517;51.174;4.160;2022-11-09T01:14:37;9.43;;;1.73;;
18776;SDS011;9517;51.174;4.160;2022-11-09T01:17:04;12.50;;;2.07;;
18776;SDS011;9517;51.174;4.160;2022-11-09T01:19:32;10.73;;;2.30;;
18776;SDS011;9517;51.174;4.160;2022-11-09T01:21:59;13.77;;;2.10;;
18776;SDS011;9517;51.174;4.160;2022-11-09T01:24:26;10.83;;;2.17;;
18776;SDS011;9517;51.174;4.160;2022-11-09T01:26:53;11.07;;;2.13;;
18776;SDS011;9517;51.174;4.160;2022-11-09T01:29:20;10.50;;;1.80;;
18776;SDS011;9517;51.174;4.160;2022-11-09T01:31:47;15.77;;;2.30;;
18776;SDS011;9517;51.174;4.160;2022-11-09T01:34:14;17.00;;;2.43;;
18776;SDS011;9517;51.174;4.160;2022-11-09T01:36:44;8.93;;;1.97;;
18776;SDS011;9517;51.174;4.160;2022-11-09T01:39:10;12.23;;;2.27;;
18776;SDS011;9517;51.174;4.160;2022-11-09T01:41:37;11.97;;;2.30;;
18776;SDS011;9517;51.174;4.160;2022-11-09T01:44:06;12.37;;;1.97;;
18776;SDS011;9517;51.174;4.160;2022-11-09T01:46:36;12.47;;;1.80;;
18776;SDS011;9517;51.174;4.160;2022-11-09T01:49:09;13.20;;;1.87;;
18776;SDS011;9517;51.174;4.160;2022-11-09T01:51:41;15.50;;;1.93;;
18776;SDS011;9517;51.174;4.160;2022-11-09T01:54:14;13.73;;;2.40;;
18776;SDS011;9517;51.174;4.160;2022-11-09T01:56:44;13.53;;;1.90;;
18776;SDS011;9517;51.174;4.160;2022-11-09T01:59:16;12.17;;;2.07;;
18776;SDS011;9517;51.174;4.160;2022-11-09T02:01:45;12.40;;;2.17;;
18776;SDS011;9517;51.174;4.160;2022-11-09T02:04:15;18.43;;;1.83;;
18776;SDS011;9517;51.174;4.160;2022-11-09T02:06:47;15.50;;;1.83;;
18776;SDS011;9517;51.174;4.160;2022-11-09T02:09:17;12.97;;;1.53;;
18776;SDS011;9517;51.174;4.160;2022-11-09T02:11:48;14.13;;;1.80;;
18776;SDS011;9517;51.174;4.160;2022-11-09T02:14:15;18.20;;;3.20;;
18776;SDS011;9517;51.174;4.160;2022-11-09T02:16:45;11.10;;;1.63;;
18776;SDS011;9517;51.174;4.160;2022-11-09T02:19:13;17.20;;;1.77;;
18776;SDS011;9517;51.174;4.160;2022-11-09T02:21:42;15.07;;;1.80;;
18776;SDS011;9517;51.174;4.160;2022-11-09T02:24:09;11.43;;;1.90;;
18776;SDS011;9517;51.174;4.160;2022-11-09T02:26:37;14.07;;;2.00;;
18776;SDS011;9517;51.174;4.160;2022-11-09T02:29:08;15.10;;;1.93;;
18776;SDS011;9517;51.174;4.160;2022-11-09T02:31:40;13.97;;;1.87;;
18776;SDS011;9517;51.174;4.160;2022-11-09T02:34:10;16.20;;;2.33;;
18776;SDS011;9517;51.174;4.160;2022-11-09T02:36:41;11.60;;;2.00;;
18776;SDS011;9517;51.174;4.160;2022-11-09T02:39:09;14.67;;;2.37;;
18776;SDS011;9517;51.174;4.160;2022-11-09T02:41:38;13.97;;;2.20;;
18776;SDS011;9517;51.174;4.160;2022-11-09T02:44:09;14.43;;;1.70;;
18776;SDS011;9517;51.174;4.160;2022-11-09T02:46:36;16.47;;;2.20;;
18776;SDS011;9517;51.174;4.160;2022-11-09T02:49:03;21.53;;;2.83;;
18776;SDS011;9517;51.174;4.160;2022-11-09T02:51:30;17.03;;;2.20;;
18776;SDS011;9517;51.174;4.160;2022-11-09T02:53:59;13.87;;;2.10;;
18776;SDS011;9517;51.174;4.160;2022-11-09T02:56:26;13.30;;;1.97;;
18776;SDS011;9517;51.174;4.160;2022-11-09T02:58:53;13.63;;;2.23;;
18776;SDS011;9517;51.174;4.160;2022-11-09T03:01:20;12.47;;;1.87;;
18776;SDS011;9517;51.174;4.160;2022-11-09T03:03:47;14.33;;;2.53;;
18776;SDS011;9517;51.174;4.160;2022-11-09T03:06:14;14.90;;;3.43;;
18776;SDS011;9517;51.174;4.160;2022-11-09T03:08:41;14.00;;;2.10;;
18776;SDS011;9517;51.174;4.160;2022-11-09T03:11:09;15.03;;;2.50;;
18776;SDS011;9517;51.174;4.160;2022-11-09T03:13:36;18.53;;;3.70;;
18776;SDS011;9517;51.174;4.160;2022-11-09T03:16:04;10.00;;;1.67;;
18776;SDS011;9517;51.174;4.160;2022-11-09T03:18:31;17.83;;;2.17;;
18776;SDS011;9517;51.174;4.160;2022-11-09T03:21:01;13.27;;;2.30;;
18776;SDS011;9517;51.174;4.160;2022-11-09T03:23:29;15.53;;;2.23;;
18776;SDS011;9517;51.174;4.160;2022-11-09T03:25:56;12.23;;;2.30;;
18776;SDS011;9517;51.174;4.160;2022-11-09T03:28:24;20.93;;;2.90;;
18776;SDS011;9517;51.174;4.160;2022-11-09T03:30:51;18.10;;;2.67;;
18776;SDS011;9517;51.174;4.160;2022-11-09T03:33:19;21.50;;;2.50;;
18776;SDS011;9517;51.174;4.160;2022-11-09T03:35:46;15.87;;;2.60;;
18776;SDS011;9517;51.174;4.160;2022-11-09T03:38:13;16.47;;;2.03;;
18776;SDS011;9517;51.174;4.160;2022-11-09T03:40:40;13.67;;;2.20;;
18776;SDS011;9517;51.174;4.160;2022-11-09T03:43:07;17.97;;;2.20;;
18776;SDS011;9517;51.174;4.160;2022-11-09T03:45:35;17.13;;;2.63;;
18776;SDS011;9517;51.174;4.160;2022-11-09T03:48:02;15.07;;;2.20;;
18776;SDS011;9517;51.174;4.160;2022-11-09T03:50:30;22.47;;;2.67;;
18776;SDS011;9517;51.174;4.160;2022-11-09T03:52:59;17.73;;;2.57;;
18776;SDS011;9517;51.174;4.160;2022-11-09T03:55:27;16.73;;;2.47;;
18776;SDS011;9517;51.174;4.160;2022-11-09T03:57:54;14.83;;;2.20;;
18776;SDS011;9517;51.174;4.160;2022-11-09T04:00:22;14.43;;;2.63;;
18776;SDS011;9517;51.174;4.160;2022-11-09T04:02:51;17.27;;;3.47;;
18776;SDS011;9517;51.174;4.160;2022-11-09T04:05:18;11.13;;;2.17;;
18776;SDS011;9517;51.174;4.160;2022-11-09T04:07:45;22.23;;;4.27;;
18776;SDS011;9517;51.174;4.160;2022-11-09T04:10:13;15.87;;;2.80;;
18776;SDS011;9517;51.174;4.160;2022-11-09T04:12:40;18.50;;;3.67;;
18776;SDS011;9517;51.174;4.160;2022-11-09T04:15:07;14.37;;;2.73;;
18776;SDS011;9517;51.174;4.160;2022-11-09T04:17:35;12.50;;;2.53;;
18776;SDS011;9517;51.174;4.160;2022-11-09T04:20:04;19.90;;;3.37;;
18776;SDS011;9517;51.174;4.160;2022-11-09T04:22:32;16.83;;;2.60;;
18776;SDS011;9517;51.174;4.160;2022-11-09T04:24:59;15.83;;;2.50;;
18776;SDS011;9517;51.174;4.160;2022-11-09T04:27:26;16.47;;;2.37;;
18776;SDS011;9517;51.174;4.160;2022-11-09T04:29:54;15.00;;;2.40;;
18776;SDS011;9517;51.174;4.160;2022-11-09T04:32:21;12.73;;;3.00;;
18776;SDS011;9517;51.174;4.160;2022-11-09T04:34:48;17.30;;;2.83;;
18776;SDS011;9517;51.174;4.160;2022-11-09T04:37:17;18.00;;;2.63;;
18776;SDS011;9517;51.174;4.160;2022-11-09T04:39:44;19.17;;;2.77;;
18776;SDS011;9517;51.174;4.160;2022-11-09T04:42:11;14.83;;;2.93;;
18776;SDS011;9517;51.174;4.160;2022-11-09T04:44:38;18.13;;;2.70;;
18776;SDS011;9517;51.174;4.160;2022-11-09T04:47:05;19.83;;;3.03;;
18776;SDS011;9517;51.174;4.160;2022-11-09T04:49:31;15.30;;;2.90;;
18776;SDS011;9517;51.174;4.160;2022-11-09T04:51:58;16.63;;;2.60;;
18776;SDS011;9517;51.174;4.160;2022-11-09T04:54:27;16.87;;;3.30;;
18776;SDS011;9517;51.174;4.160;2022-11-09T04:56:54;21.60;;;3.53;;
18776;SDS011;9517;51.174;4.160;2022-11-09T04:59:21;17.77;;;3.17;;
18776;SDS011;9517;51.174;4.160;2022-11-09T05:01:47;21.53;;;2.90;;
18776;SDS011;9517;51.174;4.160;2022-11-09T05:04:14;18.77;;;2.90;;
18776;SDS011;9517;51.174;4.160;2022-11-09T05:06:44;15.17;;;2.50;;
18776;SDS011;9517;51.174;4.160;2022-11-09T05:09:11;16.80;;;2.57;;
18776;SDS011;9517;51.174;4.160;2022-11-09T05:11:39;16.03;;;2.83;;
18776;SDS011;9517;51.174;4.160;2022-11-09T05:14:06;18.53;;;2.97;;
18776;SDS011;9517;51.174;4.160;2022-11-09T05:16:33;20.50;;;3.20;;
18776;SDS011;9517;51.174;4.160;2022-11-09T05:19:00;18.47;;;2.60;;
18776;SDS011;9517;51.174;4.160;2022-11-09T05:21:27;17.60;;;2.97;;
18776;SDS011;9517;51.174;4.160;2022-11-09T05:23:54;15.03;;;2.70;;
18776;SDS011;9517;51.174;4.160;2022-11-09T05:26:23;16.33;;;3.00;;
18776;SDS011;9517;51.174;4.160;2022-11-09T05:28:52;21.13;;;2.90;;
18776;SDS011;9517;51.174;4.160;2022-11-09T05:31:19;18.20;;;2.83;;
18776;SDS011;9517;51.174;4.160;2022-11-09T05:33:47;17.33;;;3.20;;
18776;SDS011;9517;51.174;4.160;2022-11-09T05:36:15;14.93;;;2.57;;
18776;SDS011;9517;51.174;4.160;2022-11-09T05:38:42;16.87;;;2.60;;
18776;SDS011;9517;51.174;4.160;2022-11-09T05:41:10;16.10;;;2.97;;
18776;SDS011;9517;51.174;4.160;2022-11-09T05:43:40;18.57;;;2.77;;
18776;SDS011;9517;51.174;4.160;2022-11-09T05:46:10;21.50;;;3.63;;
18776;SDS011;9517;51.174;4.160;2022-11-09T05:48:37;17.63;;;3.63;;
18776;SDS011;9517;51.174;4.160;2022-11-09T05:51:05;18.60;;;2.97;;
18776;SDS011;9517;51.174;4.160;2022-11-09T05:53:33;16.93;;;3.13;;
18776;SDS011;9517;51.174;4.160;2022-11-09T05:56:01;20.27;;;2.80;;
18776;SDS011;9517;51.174;4.160;2022-11-09T05:58:30;17.17;;;3.10;;
18776;SDS011;9517;51.174;4.160;2022-11-09T06:01:00;18.43;;;2.70;;
18776;SDS011;9517;51.174;4.160;2022-11-09T06:03:30;15.47;;;3.13;;
18776;SDS011;9517;51.174;4.160;2022-11-09T06:05:59;17.80;;;3.17;;
18776;SDS011;9517;51.174;4.160;2022-11-09T06:08:27;22.60;;;2.63;;
18776;SDS011;9517;51.174;4.160;2022-11-09T06:10:58;16.67;;;2.70;;
18776;SDS011;9517;51.174;4.160;2022-11-09T06:13:31;14.27;;;2.50;;
18776;SDS011;9517;51.174;4.160;2022-11-09T06:16:08;19.43;;;2.97;;
18776;SDS011;9517;51.174;4.160;2022-11-09T06:18:38;22.97;;;3.47;;
18776;SDS011;9517;51.174;4.160;2022-11-09T06:21:06;17.07;;;3.20;;
18776;SDS011;9517;51.174;4.160;2022-11-09T06:23:33;20.80;;;3.43;;
18776;SDS011;9517;51.174;4.160;2022-11-09T06:26:01;19.20;;;3.43;;
18776;SDS011;9517;51.174;4.160;2022-11-09T06:28:30;13.87;;;2.57;;
18776;SDS011;9517;51.174;4.160;2022-11-09T06:30:58;19.70;;;2.97;;
18776;SDS011;9517;51.174;4.160;2022-11-09T06:33:34;16.77;;;2.50;;
18776;SDS011;9517;51.174;4.160;2022-11-09T06:36:07;14.73;;;3.23;;
18776;SDS011;9517;51.174;4.160;2022-11-09T06:38:35;13.63;;;2.67;;
18776;SDS011;9517;51.174;4.160;2022-11-09T06:41:02;17.10;;;3.00;;
18776;SDS011;9517;51.174;4.160;2022-11-09T06:43:30;16.93;;;2.70;;
18776;SDS011;9517;51.174;4.160;2022-11-09T06:45:57;15.03;;;2.77;;
18776;SDS011;9517;51.174;4.160;2022-11-09T06:48:25;16.20;;;2.80;;
18776;SDS011;9517;51.174;4.160;2022-11-09T06:50:52;20.33;;;3.00;;
18776;SDS011;9517;51.174;4.160;2022-11-09T06:53:22;24.60;;;2.90;;
18776;SDS011;9517;51.174;4.160;2022-11-09T06:55:51;17.50;;;2.60;;
18776;SDS011;9517;51.174;4.160;2022-11-09T06:58:18;17.03;;;2.87;;
18776;SDS011;9517;51.174;4.160;2022-11-09T07:00:58;19.03;;;3.07;;
18776;SDS011;9517;51.174;4.160;2022-11-09T07:03:32;16.37;;;2.90;;
18776;SDS011;9517;51.174;4.160;2022-11-09T07:06:02;18.60;;;2.90;;
18776;SDS011;9517;51.174;4.160;2022-11-09T07:08:32;22.10;;;3.43;;
18776;SDS011;9517;51.174;4.160;2022-11-09T07:11:03;19.90;;;2.70;;
18776;SDS011;9517;51.174;4.160;2022-11-09T07:13:31;18.17;;;2.50;;
18776;SDS011;9517;51.174;4.160;2022-11-09T07:15:58;15.17;;;3.03;;
18776;SDS011;9517;51.174;4.160;2022-11-09T07:18:25;20.77;;;3.07;;
18776;SDS011;9517;51.174;4.160;2022-11-09T07:20:52;17.70;;;2.50;;
18776;SDS011;9517;51.174;4.160;2022-11-09T07:23:19;19.03;;;2.80;;
18776;SDS011;9517;51.174;4.160;2022-11-09T07:25:48;15.23;;;2.83;;
18776;SDS011;9517;51.174;4.160;2022-11-09T07:28:15;18.53;;;2.50;;
18776;SDS011;9517;51.174;4.160;2022-11-09T07:30:42;19.67;;;2.53;;
18776;SDS011;9517;51.174;4.160;2022-11-09T07:33:10;23.67;;;3.23;;
18776;SDS011;9517;51.174;4.160;2022-11-09T07:35:39;21.87;;;3.63;;
18776;SDS011;9517;51.174;4.160;2022-11-09T07:38:06;19.97;;;3.23;;
18776;SDS011;9517;51.174;4.160;2022-11-09T07:40:33;22.10;;;3.13;;
18776;SDS011;9517;51.174;4.160;2022-11-09T07:43:03;15.93;;;3.20;;
18776;SDS011;9517;51.174;4.160;2022-11-09T07:45:31;20.87;;;3.17;;
18776;SDS011;9517;51.174;4.160;2022-11-09T07:48:00;13.13;;;2.63;;
18776;SDS011;9517;51.174;4.160;2022-11-09T07:50:30;22.20;;;3.33;;
18776;SDS011;9517;51.174;4.160;2022-11-09T07:52:59;13.77;;;2.30;;
18776;SDS011;9517;51.174;4.160;2022-11-09T07:55:27;22.73;;;3.17;;
18776;SDS011;9517;51.174;4.160;2022-11-09T07:57:55;16.87;;;3.23;;
18776;SDS011;9517;51.174;4.160;2022-11-09T08:00:24;14.93;;;2.47;;
18776;SDS011;9517;51.174;4.160;2022-11-09T08:02:52;16.20;;;2.70;;
18776;SDS011;9517;51.174;4.160;2022-11-09T08:05:19;21.20;;;3.03;;
18776;SDS011;9517;51.174;4.160;2022-11-09T08:07:46;19.00;;;3.00;;
18776;SDS011;9517;51.174;4.160;2022-11-09T08:10:14;16.97;;;2.67;;
18776;SDS011;9517;51.174;4.160;2022-11-09T08:12:41;21.13;;;3.23;;
18776;SDS011;9517;51.174;4.160;2022-11-09T08:15:08;16.00;;;2.77;;
18776;SDS011;9517;51.174;4.160;2022-11-09T08:17:37;20.97;;;2.70;;
18776;SDS011;9517;51.174;4.160;2022-11-09T08:20:05;17.83;;;2.87;;
18776;SDS011;9517;51.174;4.160;2022-11-09T08:22:39;18.03;;;3.20;;
18776;SDS011;9517;51.174;4.160;2022-11-09T08:25:07;17.57;;;2.87;;
18776;SDS011;9517;51.174;4.160;2022-11-09T08:27:35;14.07;;;2.27;;
18776;SDS011;9517;51.174;4.160;2022-11-09T08:30:04;18.23;;;2.73;;
18776;SDS011;9517;51.174;4.160;2022-11-09T08:32:35;20.63;;;3.00;;
18776;SDS011;9517;51.174;4.160;2022-11-09T08:35:06;13.20;;;2.63;;
18776;SDS011;9517;51.174;4.160;2022-11-09T08:37:36;16.70;;;2.43;;
18776;SDS011;9517;51.174;4.160;2022-11-09T08:40:09;13.53;;;2.80;;
18776;SDS011;9517;51.174;4.160;2022-11-09T08:42:41;26.23;;;3.60;;
18776;SDS011;9517;51.174;4.160;2022-11-09T08:45:11;16.10;;;2.13;;
18776;SDS011;9517;51.174;4.160;2022-11-09T08:47:41;13.77;;;2.43;;
18776;SDS011;9517;51.174;4.160;2022-11-09T08:50:13;15.67;;;2.57;;
18776;SDS011;9517;51.174;4.160;2022-11-09T08:52:41;20.07;;;2.70;;
18776;SDS011;9517;51.174;4.160;2022-11-09T08:55:08;12.83;;;2.40;;
18776;SDS011;9517;51.174;4.160;2022-11-09T08:57:35;18.67;;;2.80;;
18776;SDS011;9517;51.174;4.160;2022-11-09T09:00:03;15.67;;;2.50;;
18776;SDS011;9517;51.174;4.160;2022-11-09T09:02:31;15.90;;;2.70;;
18776;SDS011;9517;51.174;4.160;2022-11-09T09:04:58;15.60;;;2.53;;
18776;SDS011;9517;51.174;4.160;2022-11-09T09:07:27;12.93;;;2.33;;
18776;SDS011;9517;51.174;4.160;2022-11-09T09:09:54;11.07;;;1.97;;
18776;SDS011;9517;51.174;4.160;2022-11-09T09:12:21;22.80;;;2.80;;
18776;SDS011;9517;51.174;4.160;2022-11-09T09:14:48;15.73;;;2.33;;
18776;SDS011;9517;51.174;4.160;2022-11-09T09:17:15;16.00;;;3.10;;
18776;SDS011;9517;51.174;4.160;2022-11-09T09:19:42;12.00;;;2.23;;
18776;SDS011;9517;51.174;4.160;2022-11-09T09:22:10;12.57;;;2.20;;
18776;SDS011;9517;51.174;4.160;2022-11-09T09:24:38;11.47;;;2.00;;
18776;SDS011;9517;51.174;4.160;2022-11-09T09:27:05;12.30;;;1.80;;
18776;SDS011;9517;51.174;4.160;2022-11-09T09:29:33;19.43;;;2.43;;
18776;SDS011;9517;51.174;4.160;2022-11-09T09:32:00;11.83;;;2.67;;
18776;SDS011;9517;51.174;4.160;2022-11-09T09:34:27;11.97;;;2.30;;
18776;SDS011;9517;51.174;4.160;2022-11-09T09:36:54;13.80;;;2.27;;
18776;SDS011;9517;51.174;4.160;2022-11-09T09:39:21;16.90;;;2.53;;
18776;SDS011;9517;51.174;4.160;2022-11-09T09:41:51;17.63;;;3.23;;
18776;SDS011;9517;51.174;4.160;2022-11-09T09:44:22;15.73;;;3.20;;
18776;SDS011;9517;51.174;4.160;2022-11-09T09:46:54;17.50;;;2.80;;
18776;SDS011;9517;51.174;4.160;2022-11-09T09:49:31;15.90;;;2.53;;
18776;SDS011;9517;51.174;4.160;2022-11-09T09:52:03;13.67;;;2.10;;
18776;SDS011;9517;51.174;4.160;2022-11-09T09:54:38;17.53;;;3.30;;
18776;SDS011;9517;51.174;4.160;2022-11-09T09:57:12;15.60;;;2.70;;
18776;SDS011;9517;51.174;4.160;2022-11-09T09:59:43;18.27;;;2.40;;
18776;SDS011;9517;51.174;4.160;2022-11-09T10:02:16;16.63;;;3.37;;
18776;SDS011;9517;51.174;4.160;2022-11-09T10:04:47;17.50;;;2.80;;
18776;SDS011;9517;51.174;4.160;2022-11-09T10:07:16;17.00;;;2.60;;
18776;SDS011;9517;51.174;4.160;2022-11-09T10:09:52;16.63;;;2.97;;
18776;SDS011;9517;51.174;4.160;2022-11-09T10:12:40;15.30;;;2.83;;
18776;SDS011;9517;51.174;4.160;2022-11-09T10:15:15;17.90;;;2.60;;
18776;SDS011;9517;51.174;4.160;2022-11-09T10:17:57;15.33;;;2.20;;
18776;SDS011;9517;51.174;4.160;2022-11-09T10:20:37;17.63;;;2.90;;
18776;SDS011;9517;51.174;4.160;2022-11-09T10:23:19;15.37;;;2.87;;
18776;SDS011;9517;51.174;4.160;2022-11-09T10:26:03;13.63;;;2.73;;
18776;SDS011;9517;51.174;4.160;2022-11-09T10:28:38;17.07;;;2.63;;
18776;SDS011;9517;51.174;4.160;2022-11-09T10:31:10;14.93;;;2.47;;
18776;SDS011;9517;51.174;4.160;2022-11-09T10:33:43;15.07;;;2.63;;
18776;SDS011;9517;51.174;4.160;2022-11-09T10:36:15;14.97;;;2.27;;
18776;SDS011;9517;51.174;4.160;2022-11-09T10:38:50;12.83;;;2.70;;
18776;SDS011;9517;51.174;4.160;2022-11-09T10:41:22;14.03;;;2.57;;
18776;SDS011;9517;51.174;4.160;2022-11-09T10:43:54;12.73;;;1.90;;
18776;SDS011;9517;51.174;4.160;2022-11-09T10:46:23;10.23;;;1.57;;
18776;SDS011;9517;51.174;4.160;2022-11-09T10:48:51;15.97;;;2.53;;
18776;SDS011;9517;51.174;4.160;2022-11-09T10:51:33;14.53;;;2.30;;
18776;SDS011;9517;51.174;4.160;2022-11-09T10:54:14;10.30;;;1.87;;
18776;SDS011;9517;51.174;4.160;2022-11-09T11:02:37;15.50;;;3.00;;
18776;SDS011;9517;51.174;4.160;2022-11-09T11:05:19;15.30;;;2.30;;
18776;SDS011;9517;51.174;4.160;2022-11-09T11:07:48;16.13;;;2.60;;
18776;SDS011;9517;51.174;4.160;2022-11-09T11:10:19;13.60;;;2.07;;
18776;SDS011;9517;51.174;4.160;2022-11-09T11:12:51;15.20;;;1.90;;
18776;SDS011;9517;51.174;4.160;2022-11-09T11:15:44;17.13;;;2.33;;
18776;SDS011;9517;51.174;4.160;2022-11-09T11:18:13;17.80;;;2.20;;
18776;SDS011;9517;51.174;4.160;2022-11-09T11:20:43;20.90;;;3.60;;
18776;SDS011;9517;51.174;4.160;2022-11-09T11:26:23;9.80;;;1.90;;
18776;SDS011;9517;51.174;4.160;2022-11-09T11:29:05;15.60;;;1.90;;
18776;SDS011;9517;51.174;4.160;2022-11-09T11:31:39;11.73;;;2.03;;
18776;SDS011;9517;51.174;4.160;2022-11-09T11:34:07;10.37;;;1.90;;
18776;SDS011;9517;51.174;4.160;2022-11-09T11:36:42;12.57;;;1.63;;
18776;SDS011;9517;51.174;4.160;2022-11-09T11:39:21;11.73;;;2.20;;
18776;SDS011;9517;51.174;4.160;2022-11-09T11:42:06;13.97;;;2.03;;
18776;SDS011;9517;51.174;4.160;2022-11-09T11:44:51;8.90;;;1.63;;
18776;SDS011;9517;51.174;4.160;2022-11-09T11:47:32;12.60;;;2.17;;
18776;SDS011;9517;51.174;4.160;2022-11-09T11:50:10;11.33;;;1.93;;
18776;SDS011;9517;51.174;4.160;2022-11-09T11:52:57;11.90;;;1.73;;
18776;SDS011;9517;51.174;4.160;2022-11-09T11:55:39;11.87;;;1.60;;
18776;SDS011;9517;51.174;4.160;2022-11-09T11:58:22;10.33;;;1.30;;
18776;SDS011;9517;51.174;4.160;2022-11-09T12:00:57;12.50;;;1.70;;
18776;SDS011;9517;51.174;4.160;2022-11-09T12:03:38;12.50;;;1.63;;
18776;SDS011;9517;51.174;4.160;2022-11-09T12:06:42;8.60;;;1.83;;
18776;SDS011;9517;51.174;4.160;2022-11-09T12:09:32;14.70;;;2.13;;
18776;SDS011;9517;51.174;4.160;2022-11-09T12:12:12;8.73;;;1.57;;
18776;SDS011;9517;51.174;4.160;2022-11-09T12:14:50;12.17;;;1.63;;
18776;SDS011;9517;51.174;4.160;2022-11-09T12:17:29;11.53;;;1.90;;
18776;SDS011;9517;51.174;4.160;2022-11-09T12:20:25;11.60;;;1.93;;
18776;SDS011;9517;51.174;4.160;2022-11-09T12:23:01;7.93;;;1.73;;
18776;SDS011;9517;51.174;4.160;2022-11-09T12:25:54;7.17;;;1.20;;
18776;SDS011;9517;51.174;4.160;2022-11-09T12:28:49;16.93;;;1.73;;
18776;SDS011;9517;51.174;4.160;2022-11-09T12:31:30;15.10;;;2.40;;
18776;SDS011;9517;51.174;4.160;2022-11-09T12:34:10;10.53;;;1.50;;
18776;SDS011;9517;51.174;4.160;2022-11-09T12:36:51;10.23;;;1.67;;
18776;SDS011;9517;51.174;4.160;2022-11-09T12:39:24;9.17;;;1.47;;
18776;SDS011;9517;51.174;4.160;2022-11-09T12:41:58;10.47;;;1.57;;
18776;SDS011;9517;51.174;4.160;2022-11-09T12:44:30;9.30;;;1.70;;
18776;SDS011;9517;51.174;4.160;2022-11-09T12:47:03;10.77;;;1.70;;
18776;SDS011;9517;51.174;4.160;2022-11-09T12:49:34;12.07;;;1.50;;
18776;SDS011;9517;51.174;4.160;2022-11-09T12:52:05;9.47;;;1.77;;
18776;SDS011;9517;51.174;4.160;2022-11-09T12:54:38;8.00;;;1.10;;
18776;SDS011;9517;51.174;4.160;2022-11-09T12:57:09;13.70;;;1.60;;
18776;SDS011;9517;51.174;4.160;2022-11-09T12:59:44;7.27;;;1.27;;
18776;SDS011;9517;51.174;4.160;2022-11-09T13:05:01;9.10;;;1.17;;
18776;SDS011;9517;51.174;4.160;2022-11-09T13:07:41;9.77;;;1.80;;
18776;SDS011;9517;51.174;4.160;2022-11-09T13:10:24;9.07;;;1.10;;
18776;SDS011;9517;51.174;4.160;2022-11-09T13:13:04;10.40;;;1.43;;
18776;SDS011;9517;51.174;4.160;2022-11-09T13:16:02;13.27;;;1.70;;
18776;SDS011;9517;51.174;4.160;2022-11-09T13:18:45;12.70;;;1.57;;
18776;SDS011;9517;51.174;4.160;2022-11-09T13:21:35;13.73;;;1.73;;
18776;SDS011;9517;51.174;4.160;2022-11-09T13:33:20;12.60;;;1.53;;
18776;SDS011;9517;51.174;4.160;2022-11-09T13:35:55;12.23;;;1.60;;
18776;SDS011;9517;51.174;4.160;2022-11-09T13:38:40;8.93;;;1.60;;
18776;SDS011;9517;51.174;4.160;2022-11-09T13:44:12;11.80;;;1.60;;
18776;SDS011;9517;51.174;4.160;2022-11-09T13:46:43;11.93;;;1.63;;
18776;SDS011;9517;51.174;4.160;2022-11-09T13:55:25;14.43;;;1.90;;
18776;SDS011;9517;51.174;4.160;2022-11-09T13:57:58;13.70;;;2.50;;
18776;SDS011;9517;51.174;4.160;2022-11-09T14:00:30;13.83;;;2.03;;
18776;SDS011;9517;51.174;4.160;2022-11-09T14:02:58;11.80;;;1.80;;
18776;SDS011;9517;51.174;4.160;2022-11-09T14:05:28;13.97;;;2.13;;
18776;SDS011;9517;51.174;4.160;2022-11-09T14:07:58;12.97;;;1.80;;
18776;SDS011;9517;51.174;4.160;2022-11-09T14:10:37;5.83;;;1.20;;
18776;SDS011;9517;51.174;4.160;2022-11-09T14:13:28;13.43;;;2.30;;
18776;SDS011;9517;51.174;4.160;2022-11-09T14:16:16;14.83;;;2.50;;
18776;SDS011;9517;51.174;4.160;2022-11-09T14:18:55;10.07;;;2.03;;
18776;SDS011;9517;51.174;4.160;2022-11-09T14:21:44;8.47;;;1.73;;
18776;SDS011;9517;51.174;4.160;2022-11-09T14:24:14;12.03;;;1.67;;
18776;SDS011;9517;51.174;4.160;2022-11-09T14:26:59;10.63;;;1.60;;
18776;SDS011;9517;51.174;4.160;2022-11-09T14:29:27;11.53;;;1.60;;
18776;SDS011;9517;51.174;4.160;2022-11-09T14:31:58;9.57;;;1.60;;
18776;SDS011;9517;51.174;4.160;2022-11-09T14:34:26;10.00;;;1.83;;
18776;SDS011;9517;51.174;4.160;2022-11-09T14:36:54;13.20;;;2.50;;
18776;SDS011;9517;51.174;4.160;2022-11-09T14:39:25;13.13;;;2.27;;
18776;SDS011;9517;51.174;4.160;2022-11-09T14:42:03;13.10;;;1.70;;
18776;SDS011;9517;51.174;4.160;2022-11-09T14:44:32;12.67;;;1.50;;
18776;SDS011;9517;51.174;4.160;2022-11-09T14:50:38;14.63;;;1.93;;
18776;SDS011;9517;51.174;4.160;2022-11-09T14:53:19;11.23;;;1.87;;
18776;SDS011;9517;51.174;4.160;2022-11-09T14:55:52;11.63;;;2.33;;
18776;SDS011;9517;51.174;4.160;2022-11-09T14:58:22;10.90;;;1.97;;
18776;SDS011;9517;51.174;4.160;2022-11-09T15:01:06;10.80;;;1.50;;
18776;SDS011;9517;51.174;4.160;2022-11-09T15:03:35;14.40;;;1.77;;
18776;SDS011;9517;51.174;4.160;2022-11-09T15:06:04;13.03;;;1.97;;
18776;SDS011;9517;51.174;4.160;2022-11-09T15:08:46;8.70;;;1.20;;
18776;SDS011;9517;51.174;4.160;2022-11-09T15:11:17;14.00;;;1.80;;
18776;SDS011;9517;51.174;4.160;2022-11-09T15:13:46;11.73;;;2.10;;
18776;SDS011;9517;51.174;4.160;2022-11-09T15:16:18;14.40;;;2.40;;
18776;SDS011;9517;51.174;4.160;2022-11-09T15:18:47;10.30;;;1.77;;
18776;SDS011;9517;51.174;4.160;2022-11-09T15:21:17;15.97;;;2.23;;
18776;SDS011;9517;51.174;4.160;2022-11-09T15:23:46;18.83;;;2.03;;
18776;SDS011;9517;51.174;4.160;2022-11-09T15:26:24;12.83;;;1.50;;
18776;SDS011;9517;51.174;4.160;2022-11-09T15:28:59;17.53;;;2.90;;
18776;SDS011;9517;51.174;4.160;2022-11-09T15:31:27;11.90;;;2.37;;
18776;SDS011;9517;51.174;4.160;2022-11-09T15:33:55;15.40;;;1.80;;
18776;SDS011;9517;51.174;4.160;2022-11-09T15:36:25;10.87;;;2.47;;
18776;SDS011;9517;51.174;4.160;2022-11-09T15:39:11;15.03;;;2.23;;
18776;SDS011;9517;51.174;4.160;2022-11-09T15:41:42;12.00;;;2.10;;
18776;SDS011;9517;51.174;4.160;2022-11-09T15:44:09;17.60;;;2.03;;